CheckWX is a tool to help pilots better visualize weather data.  It is not intended as a substitute for an official pre-flight weather briefing.

10:05:44 UTC

DNJO METAR
Yakubu Gowon Airport
Jos, Nigeria
Current

14 hours ago

DNJO 242000Z 04009KT 2500 HZ NSC 20/M03 Q1019
Observed
Feb-24 @ 20:00 UTC
Wind
  • 040° at 9 KTS
Visibility
2,500 meters
Flight Rules
IFR
Conditions
Haze
Cloud Levels
  • Clear skies
Temperature
20°C / 68°F
Dewpoint
-3°C / 27°F
Humidity
21%
Altimeter
30.09" Hg
Pressure
1018.92 hPa
Previous

20 hours ago

DNJO 241400Z 08012KT 4000 HZ NSC 28/01 Q1018
Observed
Feb-24 @ 14:00 UTC
Wind
  • 080° at 12 KTS
Visibility
4,000 meters
Flight Rules
IFR
Conditions
Haze
Cloud Levels
  • Clear skies
Temperature
28°C / 82°F
Dewpoint
C / 34°F
Humidity
17%
Altimeter
30.06" Hg
Pressure
1017.92 hPa
Previous

23 hours ago

DNJO 241100Z 07025KT 4000 HZ NSC 27/M02 Q1020
Observed
Feb-24 @ 11:00 UTC
Wind
  • 070° at 25 KTS
Visibility
4,000 meters
Flight Rules
IFR
Conditions
Haze
Cloud Levels
  • Clear skies
Temperature
27°C / 81°F
Dewpoint
-2°C / 28°F
Humidity
15%
Altimeter
30.12" Hg
Pressure
1019.92 hPa